Time;durP1;ratioP1;P1;durP2;ratioP2;P2;SDS_P1;SDS_P2;PMS_P1;PMS_P2;Temp;Humidity;BMP_temperature;BMP_pressure;BME280_temperature;BME280_humidity;BME280_pressure;Samples;Min_cycle;Max_cycle;Signal;HPM_P1;HPM_P2
2022/06/04 00:00:37;;;;;;;;;;;15.00;99.90;;;;;;5110014;28;19904;-66
2022/06/04 00:03:03;;;;;;;;;;;15.00;99.90;;;;;;5109653;28;19908;-66
2022/06/04 00:05:30;;;;;;;;;;;15.00;99.90;;;;;;5110266;27;19903;-66
2022/06/04 00:07:57;;;;;;;;;;;15.00;99.90;;;;;;5112558;28;19919;-66
2022/06/04 00:15:53;;;;;;;;;;;15.00;99.90;;;;;;5113161;28;20327;-66
2022/06/04 00:18:19;;;;;;;;;;;15.00;99.90;;;;;;5112684;28;20002;-67
2022/06/04 00:20:46;;;;;;;;;;;15.00;99.90;;;;;;5112448;28;19904;-66
2022/06/04 00:23:12;;;;;;;;;;;15.00;99.90;;;;;;5112223;28;19912;-66
2022/06/04 00:25:39;;;;;;;;;;;15.00;99.90;;;;;;5112367;28;19904;-66
2022/06/04 00:28:06;;;;;;;;;;;15.00;99.90;;;;;;5112352;28;19952;-66
2022/06/04 00:30:32;;;;;;;;;;;15.00;99.90;;;;;;5112553;28;19911;-66
2022/06/04 00:32:58;;;;;;;;;;;15.00;99.90;;;;;;5110801;28;19907;-66
2022/06/04 00:35:24;;;;;;;;;;;15.00;99.90;;;;;;5112368;28;19904;-66
2022/06/04 00:37:50;;;;;;;;;;;15.00;99.90;;;;;;5111898;28;19916;-66
2022/06/04 00:40:38;;;;;;;;;;;15.00;99.90;;;;;;5112071;28;20634;-65
2022/06/04 00:43:04;;;;;;;;;;;15.00;99.90;;;;;;5111867;28;19911;-66
2022/06/04 00:45:35;;;;;;;;;;;15.00;99.90;;;;;;5112000;28;19925;-65
2022/06/04 00:48:05;;;;;;;;;;;15.00;99.90;;;;;;5111953;28;19938;-66
2022/06/04 00:50:32;;;;;;;;;;;15.00;99.90;;;;;;5111240;28;19919;-67
2022/06/04 00:52:59;;;;;;;;;;;15.00;99.90;;;;;;5111853;28;19931;-65
2022/06/04 00:55:28;;;;;;;;;;;15.00;99.90;;;;;;5112187;28;20006;-65
2022/06/04 00:58:05;;;;;;;;;;;15.00;99.90;;;;;;5111588;28;19934;-65
2022/06/04 01:00:40;;;;;;;;;;;15.00;99.90;;;;;;5111565;28;20579;-65
2022/06/04 01:03:06;;;;;;;;;;;14.90;99.90;;;;;;5108927;28;19911;-65
2022/06/04 01:05:31;;;;;;;;;;;15.00;99.90;;;;;;5108024;28;19926;-65
2022/06/04 01:08:06;;;;;;;;;;;14.90;99.90;;;;;;5110700;28;20005;-66
2022/06/04 01:10:37;;;;;;;;;;;14.90;99.90;;;;;;5093262;28;20249;-65
2022/06/04 01:13:08;;;;;;;;;;;15.00;99.90;;;;;;5111758;28;19929;-66
2022/06/04 01:15:40;;;;;;;;;;;14.90;99.90;;;;;;5111525;28;19998;-65
2022/06/04 01:18:08;;;;;;;;;;;14.90;99.90;;;;;;5111230;28;19959;-66
2022/06/04 01:20:34;;;;;;;;;;;14.90;99.90;;;;;;5110992;28;19903;-65
2022/06/04 01:23:05;;;;;;;;;;;14.90;99.90;;;;;;5111438;28;20237;-65
2022/06/04 01:25:37;;;;;;;;;;;14.80;99.90;;;;;;5111187;28;19914;-66
2022/06/04 01:28:07;;;;;;;;;;;14.80;99.90;;;;;;5111104;28;19951;-65
2022/06/04 01:30:37;;;;;;;;;;;14.80;99.90;;;;;;5111187;28;19911;-65
2022/06/04 01:33:06;;;;;;;;;;;14.80;99.90;;;;;;5111168;28;20056;-67
2022/06/04 01:35:34;;;;;;;;;;;14.80;99.90;;;;;;5109697;28;20303;-65
2022/06/04 01:38:07;;;;;;;;;;;14.90;99.90;;;;;;5110916;28;20326;-65
2022/06/04 01:43:21;;;;;;;;;;;14.90;99.90;;;;;;5110457;28;19915;-65
2022/06/04 01:45:49;;;;;;;;;;;14.90;99.90;;;;;;5104734;28;19904;-64
2022/06/04 01:48:16;;;;;;;;;;;14.90;99.90;;;;;;5090419;28;20352;-65
2022/06/04 01:50:44;;;;;;;;;;;14.90;99.90;;;;;;5106687;28;19912;-65
2022/06/04 01:53:11;;;;;;;;;;;15.00;99.90;;;;;;5107742;28;19904;-66
2022/06/04 01:55:49;;;;;;;;;;;15.00;99.90;;;;;;5107873;28;20081;-66
2022/06/04 01:58:21;;;;;;;;;;;15.00;99.90;;;;;;5107690;28;19938;-66
2022/06/04 02:00:52;;;;;;;;;;;15.00;99.90;;;;;;5107663;28;20367;-66
2022/06/04 02:03:24;;;;;;;;;;;14.90;99.90;;;;;;5107319;28;20322;-66
2022/06/04 02:05:58;;;;;;;;;;;14.90;99.90;;;;;;5110525;28;19973;-65
2022/06/04 02:08:28;;;;;;;;;;;14.90;99.90;;;;;;5110708;28;19911;-65
2022/06/04 02:11:09;;;;;;;;;;;15.00;99.90;;;;;;5110787;28;19904;-65
2022/06/04 02:13:36;;;;;;;;;;;15.00;99.90;;;;;;5111137;28;20603;-66
2022/06/04 02:16:06;;;;;;;;;;;15.00;99.90;;;;;;5114927;28;20310;-66
2022/06/04 02:18:32;;;;;;;;;;;14.90;99.90;;;;;;5114867;28;19919;-66
2022/06/04 02:20:57;;;;;;;;;;;14.90;99.90;;;;;;5114841;28;19910;-66
2022/06/04 02:23:23;;;;;;;;;;;14.90;99.90;;;;;;5114726;28;20265;-66
2022/06/04 02:25:48;;;;;;;;;;;14.90;99.90;;;;;;5115022;28;19978;-66
2022/06/04 02:28:14;;;;;;;;;;;14.90;99.90;;;;;;5114535;28;19939;-66
2022/06/04 02:30:43;;;;;;;;;;;14.90;99.90;;;;;;5114535;28;20340;-66
2022/06/04 02:33:09;;;;;;;;;;;14.90;99.90;;;;;;5114623;27;19903;-66
2022/06/04 02:35:38;;;;;;;;;;;14.90;99.90;;;;;;5114248;28;19907;-66
2022/06/04 02:38:04;;;;;;;;;;;14.90;99.90;;;;;;5114547;28;19919;-66
2022/06/04 02:40:44;;;;;;;;;;;14.90;99.90;;;;;;5114537;28;19911;-67
2022/06/04 02:43:12;;;;;;;;;;;14.90;99.90;;;;;;5111569;27;19954;-66
2022/06/04 02:45:40;;;;;;;;;;;14.90;99.90;;;;;;5110904;28;19911;-66
2022/06/04 02:48:12;;;;;;;;;;;14.90;99.90;;;;;;5111027;28;19915;-68
2022/06/04 02:50:41;;;;;;;;;;;14.90;99.90;;;;;;5110617;28;19941;-67
2022/06/04 02:53:07;;;;;;;;;;;14.90;99.90;;;;;;5113642;28;20351;-65
2022/06/04 02:55:36;;;;;;;;;;;14.90;99.90;;;;;;5114163;28;19911;-65
2022/06/04 02:58:05;;;;;;;;;;;14.90;99.90;;;;;;5114101;28;20376;-66
2022/06/04 03:00:32;;;;;;;;;;;14.90;99.90;;;;;;5114046;28;20281;-65
2022/06/04 03:02:57;;;;;;;;;;;14.90;99.90;;;;;;5113905;28;19907;-65
2022/06/04 03:05:25;;;;;;;;;;;14.90;99.90;;;;;;5113730;28;19964;-65
2022/06/04 03:07:52;;;;;;;;;;;14.90;99.90;;;;;;5113836;28;19950;-65
2022/06/04 03:10:20;;;;;;;;;;;14.90;99.90;;;;;;5113812;28;19908;-65
2022/06/04 03:12:46;;;;;;;;;;;14.80;99.90;;;;;;5113824;28;20397;-65
2022/06/04 03:15:12;;;;;;;;;;;14.90;99.90;;;;;;5113732;28;19911;-66
2022/06/04 03:17:39;;;;;;;;;;;14.90;99.90;;;;;;5113537;28;19920;-66
2022/06/04 03:20:07;;;;;;;;;;;14.80;99.90;;;;;;5113490;28;19943;-66
2022/06/04 03:22:33;;;;;;;;;;;14.80;99.90;;;;;;5113383;28;19907;-66
2022/06/04 03:24:58;;;;;;;;;;;14.80;99.90;;;;;;5113506;28;19969;-66
2022/06/04 03:27:24;;;;;;;;;;;14.80;99.90;;;;;;5112014;28;19911;-66
2022/06/04 03:29:49;;;;;;;;;;;14.80;99.90;;;;;;5112238;28;19951;-66
2022/06/04 03:32:15;;;;;;;;;;;14.90;99.90;;;;;;5113274;28;19915;-67
2022/06/04 03:34:40;;;;;;;;;;;14.90;99.90;;;;;;5113448;28;19936;-66
2022/06/04 03:37:06;;;;;;;;;;;14.80;99.90;;;;;;5112686;28;19923;-66
2022/06/04 03:39:31;;;;;;;;;;;14.80;99.90;;;;;;5113220;28;19931;-66
2022/06/04 03:41:58;;;;;;;;;;;14.70;99.90;;;;;;5113134;28;19911;-66
2022/06/04 03:44:24;;;;;;;;;;;14.70;99.90;;;;;;5111556;28;19990;-66
2022/06/04 03:46:49;;;;;;;;;;;14.60;99.90;;;;;;5110264;28;20036;-66
2022/06/04 03:49:15;;;;;;;;;;;14.60;99.90;;;;;;5109890;28;19908;-66
2022/06/04 03:51:41;;;;;;;;;;;14.60;99.90;;;;;;5112679;28;19926;-66
2022/06/04 03:54:07;;;;;;;;;;;14.60;99.90;;;;;;5109512;28;20267;-66
2022/06/04 03:56:32;;;;;;;;;;;14.60;99.90;;;;;;5109506;28;19926;-65
2022/06/04 03:58:58;;;;;;;;;;;14.50;99.90;;;;;;5111341;28;19911;-64
2022/06/04 04:01:26;;;;;;;;;;;14.50;99.90;;;;;;5111381;28;19904;-65
2022/06/04 04:03:51;;;;;;;;;;;14.50;99.90;;;;;;5109748;28;20482;-65
2022/06/04 04:06:19;;;;;;;;;;;14.50;99.90;;;;;;5110287;28;19915;-65
2022/06/04 04:08:44;;;;;;;;;;;14.50;99.90;;;;;;5110266;28;19923;-66
2022/06/04 04:11:13;;;;;;;;;;;14.50;99.90;;;;;;5112832;28;19903;-65
2022/06/04 04:13:40;;;;;;;;;;;14.50;99.90;;;;;;5112665;28;19903;-66
2022/06/04 04:16:06;;;;;;;;;;;14.50;99.90;;;;;;5110721;28;19903;-65
2022/06/04 04:18:31;;;;;;;;;;;14.50;99.90;;;;;;5108969;28;19915;-64
2022/06/04 04:21:02;;;;;;;;;;;14.50;99.90;;;;;;5110119;28;20004;-65
2022/06/04 04:23:27;;;;;;;;;;;14.50;99.90;;;;;;5112531;28;19908;-65
2022/06/04 04:25:53;;;;;;;;;;;14.50;99.90;;;;;;5112451;28;19931;-67
2022/06/04 04:28:18;;;;;;;;;;;14.40;99.90;;;;;;5112549;28;19908;-65
2022/06/04 04:30:45;;;;;;;;;;;14.40;99.90;;;;;;5111418;28;19984;-65
2022/06/04 04:33:10;;;;;;;;;;;14.50;99.90;;;;;;5107299;28;20390;-65
2022/06/04 04:35:36;;;;;;;;;;;14.50;99.90;;;;;;5108260;28;20474;-65
2022/06/04 04:38:02;;;;;;;;;;;14.50;99.90;;;;;;5110172;28;19920;-65
2022/06/04 04:40:29;;;;;;;;;;;14.50;99.90;;;;;;5111684;28;20275;-65
2022/06/04 04:42:58;;;;;;;;;;;14.40;99.90;;;;;;5111930;28;19903;-65
2022/06/04 04:45:24;;;;;;;;;;;14.40;99.90;;;;;;5112228;28;20000;-67
2022/06/04 04:47:52;;;;;;;;;;;14.50;99.90;;;;;;5111857;28;20379;-65
2022/06/04 04:50:19;;;;;;;;;;;14.40;99.90;;;;;;5111606;28;19904;-64
2022/06/04 04:52:45;;;;;;;;;;;14.40;99.90;;;;;;5111809;28;19903;-65
2022/06/04 04:55:10;;;;;;;;;;;14.40;99.90;;;;;;5111751;28;19984;-64
2022/06/04 04:57:36;;;;;;;;;;;14.40;99.90;;;;;;5111661;28;19973;-64
2022/06/04 05:00:04;;;;;;;;;;;14.50;99.90;;;;;;5111505;28;19908;-65
2022/06/04 05:02:30;;;;;;;;;;;14.40;99.90;;;;;;5108119;28;19994;-65
2022/06/04 05:04:55;;;;;;;;;;;14.40;99.90;;;;;;5108002;28;19908;-66
2022/06/04 05:07:21;;;;;;;;;;;14.50;99.90;;;;;;5108470;28;19910;-65
2022/06/04 05:09:46;;;;;;;;;;;14.50;99.90;;;;;;5108623;28;19948;-64
2022/06/04 05:12:12;;;;;;;;;;;14.50;99.90;;;;;;5108460;28;19903;-66
2022/06/04 05:14:37;;;;;;;;;;;14.50;99.90;;;;;;5108343;28;20295;-65
2022/06/04 05:17:04;;;;;;;;;;;14.50;99.90;;;;;;5109116;28;20305;-68
2022/06/04 05:19:29;;;;;;;;;;;14.40;99.90;;;;;;5111255;28;19912;-69
2022/06/04 05:21:55;;;;;;;;;;;14.40;99.90;;;;;;5111140;28;19907;-70
2022/06/04 05:24:22;;;;;;;;;;;14.30;99.90;;;;;;5111292;28;19942;-72
2022/06/04 05:26:49;;;;;;;;;;;14.20;99.90;;;;;;5111359;28;19904;-71
2022/06/04 05:29:15;;;;;;;;;;;14.20;99.90;;;;;;5111292;28;19910;-72
2022/06/04 05:31:41;;;;;;;;;;;14.10;99.90;;;;;;5109220;28;19908;-72
2022/06/04 05:34:07;;;;;;;;;;;14.10;99.90;;;;;;5107960;28;19903;-72
2022/06/04 05:36:33;;;;;;;;;;;14.10;99.90;;;;;;5109255;28;19915;-71
2022/06/04 05:38:58;;;;;;;;;;;14.00;99.90;;;;;;5110859;28;20300;-71
2022/06/04 05:41:25;;;;;;;;;;;13.90;99.90;;;;;;5110940;28;20271;-70
2022/06/04 05:43:52;;;;;;;;;;;13.90;99.90;;;;;;5111151;28;19956;-71
2022/06/04 05:46:19;;;;;;;;;;;13.80;99.90;;;;;;5109309;28;20363;-72
2022/06/04 05:48:45;;;;;;;;;;;13.80;99.90;;;;;;5107136;28;19907;-72
2022/06/04 05:51:12;;;;;;;;;;;13.70;99.90;;;;;;5108719;28;19904;-71
2022/06/04 05:53:38;;;;;;;;;;;13.70;99.90;;;;;;5111076;28;20040;-72
2022/06/04 05:56:09;;;;;;;;;;;13.70;99.90;;;;;;5109488;28;19989;-72
2022/06/04 05:58:34;;;;;;;;;;;13.70;99.90;;;;;;5107817;28;19916;-72
2022/06/04 06:01:01;;;;;;;;;;;13.80;99.90;;;;;;5107537;28;19918;-73
2022/06/04 06:03:27;;;;;;;;;;;13.70;99.90;;;;;;5107632;28;19991;-72
2022/06/04 06:05:52;;;;;;;;;;;13.80;99.90;;;;;;5108253;28;20375;-72
2022/06/04 06:08:18;;;;;;;;;;;13.70;99.90;;;;;;5110811;28;19930;-73
2022/06/04 06:10:44;;;;;;;;;;;13.70;99.90;;;;;;5110859;28;19904;-73
2022/06/04 06:13:10;;;;;;;;;;;13.70;99.90;;;;;;5110874;28;19987;-73
2022/06/04 06:15:36;;;;;;;;;;;13.70;99.90;;;;;;5110723;28;19908;-74
2022/06/04 06:18:02;;;;;;;;;;;13.70;99.90;;;;;;5110974;28;19968;-74
2022/06/04 06:20:28;;;;;;;;;;;13.70;99.90;;;;;;5110683;28;19988;-74
2022/06/04 06:22:54;;;;;;;;;;;13.70;99.90;;;;;;5109438;28;20284;-74
2022/06/04 06:25:20;;;;;;;;;;;13.70;99.90;;;;;;5105294;28;20373;-74
2022/06/04 06:27:45;;;;;;;;;;;13.70;99.90;;;;;;5107627;28;20014;-73
2022/06/04 06:30:11;;;;;;;;;;;13.70;99.90;;;;;;5107261;28;20311;-74
2022/06/04 06:32:36;;;;;;;;;;;13.70;99.90;;;;;;5106938;28;19904;-74
2022/06/04 06:35:03;;;;;;;;;;;13.70;99.90;;;;;;5107423;28;20004;-74
2022/06/04 06:37:29;;;;;;;;;;;13.80;99.90;;;;;;5110222;28;19959;-73
2022/06/04 06:39:55;;;;;;;;;;;13.80;99.90;;;;;;5110483;28;19907;-74
2022/06/04 06:42:22;;;;;;;;;;;13.80;99.90;;;;;;5110308;28;20325;-73
2022/06/04 06:44:47;;;;;;;;;;;13.90;99.90;;;;;;5110424;28;19907;-73
2022/06/04 06:47:13;;;;;;;;;;;13.90;99.90;;;;;;5110471;28;19903;-73
2022/06/04 06:49:39;;;;;;;;;;;13.90;99.90;;;;;;5110290;28;20283;-73
2022/06/04 06:52:06;;;;;;;;;;;14.00;99.90;;;;;;5110237;28;19978;-73
2022/06/04 06:54:35;;;;;;;;;;;14.00;99.90;;;;;;5110423;28;19942;-73
2022/06/04 06:57:01;;;;;;;;;;;14.00;99.90;;;;;;5110346;28;19947;-73
2022/06/04 06:59:28;;;;;;;;;;;14.00;99.90;;;;;;5111826;28;19914;-73
2022/06/04 07:01:54;;;;;;;;;;;14.00;99.90;;;;;;5112297;28;19903;-73
2022/06/04 07:04:22;;;;;;;;;;;14.00;99.90;;;;;;5110737;28;19908;-73
2022/06/04 07:06:50;;;;;;;;;;;14.00;99.90;;;;;;5111209;28;19929;-73
2022/06/04 07:09:16;;;;;;;;;;;14.00;99.90;;;;;;5113937;28;19926;-70
2022/06/04 07:11:42;;;;;;;;;;;14.00;99.90;;;;;;5113810;28;19950;-73
2022/06/04 07:14:08;;;;;;;;;;;14.10;99.90;;;;;;5113882;28;19939;-72
2022/06/04 07:16:34;;;;;;;;;;;14.10;99.90;;;;;;5114033;28;20271;-72
2022/06/04 07:19:00;;;;;;;;;;;14.20;99.90;;;;;;5113650;28;19935;-72
2022/06/04 07:21:26;;;;;;;;;;;14.30;99.90;;;;;;5113372;28;19904;-72
2022/06/04 07:23:53;;;;;;;;;;;14.50;99.90;;;;;;5113704;28;20266;-72
2022/06/04 07:26:19;;;;;;;;;;;14.60;99.90;;;;;;5113564;28;20359;-72
2022/06/04 07:28:45;;;;;;;;;;;14.90;99.90;;;;;;5113594;28;20045;-72
2022/06/04 07:31:11;;;;;;;;;;;15.10;99.90;;;;;;5113857;28;19998;-72
2022/06/04 07:33:36;;;;;;;;;;;15.20;99.90;;;;;;5113371;28;19903;-72
2022/06/04 07:36:02;;;;;;;;;;;15.40;99.90;;;;;;5113527;28;19915;-72
2022/06/04 07:38:28;;;;;;;;;;;15.60;99.90;;;;;;5113233;28;19915;-72
2022/06/04 07:40:53;;;;;;;;;;;15.50;99.90;;;;;;5113145;28;20522;-72
2022/06/04 07:43:19;;;;;;;;;;;15.60;99.90;;;;;;5113093;28;19911;-71
2022/06/04 07:45:45;;;;;;;;;;;15.50;99.90;;;;;;5113523;27;20014;-72
2022/06/04 07:48:10;;;;;;;;;;;15.50;99.90;;;;;;5112942;28;19908;-72
2022/06/04 07:50:38;;;;;;;;;;;15.70;99.90;;;;;;5112885;28;19907;-72
2022/06/04 07:53:03;;;;;;;;;;;16.00;99.90;;;;;;5113231;28;20375;-72
2022/06/04 07:55:29;;;;;;;;;;;16.60;99.90;;;;;;5113045;28;19904;-71
2022/06/04 07:57:54;;;;;;;;;;;17.00;99.90;;;;;;5146012;27;19908;-72
2022/06/04 08:00:20;;;;;;;;;;;17.70;99.90;;;;;;5113209;28;20378;-72
2022/06/04 08:02:47;;;;;;;;;;;17.90;99.90;;;;;;5112814;28;19912;-71
2022/06/04 08:05:13;;;;;;;;;;;18.00;99.90;;;;;;5112410;28;19983;-71
2022/06/04 08:07:39;;;;;;;;;;;17.90;99.90;;;;;;5112817;28;19926;-72
2022/06/04 08:10:06;;;;;;;;;;;17.80;99.90;;;;;;5112490;28;20419;-73
2022/06/04 08:12:34;;;;;;;;;;;17.70;99.90;;;;;;5112200;28;19904;-74
2022/06/04 08:15:01;;;;;;;;;;;17.70;99.90;;;;;;5113156;28;19904;-74
2022/06/04 08:17:26;;;;;;;;;;;17.80;99.90;;;;;;5109963;28;19912;-73
2022/06/04 08:19:52;;;;;;;;;;;17.90;99.90;;;;;;5109394;28;19964;-73
2022/06/04 08:22:18;;;;;;;;;;;17.90;99.90;;;;;;5110764;28;19964;-73
2022/06/04 08:24:43;;;;;;;;;;;17.90;99.90;;;;;;5108695;28;20403;-75
2022/06/04 08:27:09;;;;;;;;;;;17.80;99.90;;;;;;5111135;28;19964;-74
2022/06/04 08:29:37;;;;;;;;;;;18.00;99.90;;;;;;5109854;28;19954;-74
2022/06/04 08:32:03;;;;;;;;;;;18.10;99.90;;;;;;5110146;28;19904;-73
2022/06/04 08:34:30;;;;;;;;;;;18.20;99.90;;;;;;5108930;28;19904;-73
2022/06/04 08:36:55;;;;;;;;;;;18.00;99.90;;;;;;5108612;28;19957;-73
2022/06/04 08:39:21;;;;;;;;;;;17.90;99.90;;;;;;5109225;28;19967;-73
2022/06/04 08:41:49;;;;;;;;;;;17.90;99.90;;;;;;5109169;28;19907;-73
2022/06/04 08:44:15;;;;;;;;;;;17.60;99.90;;;;;;5090740;28;19907;-73
2022/06/04 08:46:51;;;;;;;;;;;17.70;99.90;;;;;;5109122;28;20039;-73
2022/06/04 08:49:29;;;;;;;;;;;18.00;99.90;;;;;;5108762;28;19999;-73
2022/06/04 08:51:56;;;;;;;;;;;18.40;99.90;;;;;;5108554;28;19915;-73
2022/06/04 09:00:03;;;;;;;;;;;19.10;99.90;;;;;;5109045;28;19918;-72
2022/06/04 09:02:57;;;;;;;;;;;19.30;99.90;;;;;;5108852;28;20003;-72
2022/06/04 09:05:26;;;;;;;;;;;19.20;99.90;;;;;;5108335;28;20283;-72
2022/06/04 09:07:54;;;;;;;;;;;19.70;99.90;;;;;;5096643;28;19911;-73
2022/06/04 09:10:25;;;;;;;;;;;20.20;99.90;;;;;;5108404;28;19907;-71
2022/06/04 09:12:56;;;;;;;;;;;21.10;99.90;;;;;;5104391;28;19972;-73
2022/06/04 09:15:27;;;;;;;;;;;21.80;99.90;;;;;;5108289;28;19908;-73
2022/06/04 09:17:54;;;;;;;;;;;22.70;99.90;;;;;;5108115;28;19915;-72
2022/06/04 09:20:38;;;;;;;;;;;22.80;99.90;;;;;;5107555;28;20363;-71
2022/06/04 09:23:22;;;;;;;;;;;22.20;99.90;;;;;;5108005;28;20344;-68
2022/06/04 09:25:47;;;;;;;;;;;21.00;99.90;;;;;;5108385;28;20314;-71
2022/06/04 09:28:22;;;;;;;;;;;20.50;99.90;;;;;;5108313;28;19907;-69
2022/06/04 09:31:10;;;;;;;;;;;20.40;99.90;;;;;;5108549;28;19912;-70
2022/06/04 09:33:45;;;;;;;;;;;20.90;99.90;;;;;;5099951;28;19904;-68
2022/06/04 09:36:12;;;;;;;;;;;21.60;99.90;;;;;;5106147;28;19949;-67
2022/06/04 09:38:37;;;;;;;;;;;21.30;99.90;;;;;;5108499;28;20310;-68
2022/06/04 09:41:05;;;;;;;;;;;21.00;99.90;;;;;;5108478;28;19983;-68
2022/06/04 09:43:31;;;;;;;;;;;20.90;99.90;;;;;;5108166;28;20287;-68
2022/06/04 09:45:59;;;;;;;;;;;21.50;99.90;;;;;;5108227;28;19925;-68
2022/06/04 09:48:50;;;;;;;;;;;21.90;99.90;;;;;;5108104;28;19900;-67
2022/06/04 09:51:17;;;;;;;;;;;22.40;99.90;;;;;;5104474;28;19952;-68
2022/06/04 09:53:44;;;;;;;;;;;22.80;99.90;;;;;;5107822;28;19908;-67
2022/06/04 09:56:10;;;;;;;;;;;23.70;99.70;;;;;;5107802;28;20029;-67
2022/06/04 09:58:37;;;;;;;;;;;24.30;97.50;;;;;;5107420;28;20006;-67
2022/06/04 10:01:07;;;;;;;;;;;23.00;98.00;;;;;;5107662;28;19918;-66
2022/06/04 10:03:38;;;;;;;;;;;22.00;99.80;;;;;;5107608;28;19908;-66
2022/06/04 10:06:06;;;;;;;;;;;22.50;99.90;;;;;;5107553;28;19908;-67
2022/06/04 10:09:54;;;;;;;;;;;22.60;99.50;;;;;;5107717;28;19908;-67
2022/06/04 10:11:19;;;;;;;;;;;21.60;99.90;;;;;;5107705;28;19929;-66
2022/06/04 10:13:47;;;;;;;;;;;20.80;99.90;;;;;;5107377;28;20316;-66
2022/06/04 10:16:21;;;;;;;;;;;20.50;99.90;;;;;;5107085;28;20391;-66
2022/06/04 10:18:55;;;;;;;;;;;20.50;99.90;;;;;;5105190;28;19959;-66
2022/06/04 10:21:25;;;;;;;;;;;22.40;99.90;;;;;;5107369;28;19953;-66
2022/06/04 10:23:53;;;;;;;;;;;24.90;97.70;;;;;;5106580;28;19907;-64
2022/06/04 10:26:21;;;;;;;;;;;25.90;94.80;;;;;;5107746;28;19908;-65
2022/06/04 10:28:49;;;;;;;;;;;24.50;95.10;;;;;;5107706;28;19904;-65
2022/06/04 10:31:44;;;;;;;;;;;24.20;96.20;;;;;;5107091;28;20288;-66
2022/06/04 10:34:24;;;;;;;;;;;24.90;96.30;;;;;;5094422;28;19972;-64
2022/06/04 10:36:49;;;;;;;;;;;26.30;94.60;;;;;;5111030;28;19903;-65
2022/06/04 10:39:28;;;;;;;;;;;27.80;91.80;;;;;;5111243;28;20283;-65
2022/06/04 10:42:00;;;;;;;;;;;27.40;88.60;;;;;;5093186;28;20329;-65
2022/06/04 10:44:44;;;;;;;;;;;26.40;90.30;;;;;;5111677;28;19914;-65
2022/06/04 10:47:16;;;;;;;;;;;25.90;91.30;;;;;;5111250;28;19911;-64
2022/06/04 10:49:53;;;;;;;;;;;24.10;92.70;;;;;;5110807;28;19904;-65
2022/06/04 10:52:23;;;;;;;;;;;22.60;95.80;;;;;;5111142;28;20376;-65
2022/06/04 10:54:55;;;;;;;;;;;22.20;97.90;;;;;;5110821;28;19914;-65
2022/06/04 10:57:20;;;;;;;;;;;21.70;99.90;;;;;;5110939;28;20007;-65
2022/06/04 10:59:55;;;;;;;;;;;20.60;99.90;;;;;;5111151;28;19998;-65
2022/06/04 11:02:30;;;;;;;;;;;20.50;99.90;;;;;;5110945;28;19908;-65
2022/06/04 11:04:59;;;;;;;;;;;21.70;99.90;;;;;;5110301;28;19907;-65
2022/06/04 11:07:37;;;;;;;;;;;24.60;98.30;;;;;;5110821;28;19908;-64
2022/06/04 11:10:04;;;;;;;;;;;24.90;95.10;;;;;;5110845;28;19903;-67
2022/06/04 11:12:36;;;;;;;;;;;26.20;92.70;;;;;;5110587;28;19907;-69
2022/06/04 11:15:06;;;;;;;;;;;26.70;91.70;;;;;;5110603;28;19912;-67
2022/06/04 11:17:42;;;;;;;;;;;26.20;91.40;;;;;;5110557;28;19911;-67
2022/06/04 11:20:43;;;;;;;;;;;25.70;92.10;;;;;;5110093;27;20368;-68
2022/06/04 11:23:20;;;;;;;;;;;27.80;88.50;;;;;;5047099;28;19940;-68
2022/06/04 11:25:48;;;;;;;;;;;28.80;84.90;;;;;;5100303;28;19915;-68
2022/06/04 11:28:16;;;;;;;;;;;29.60;78.60;;;;;;5103389;28;20363;-69
2022/06/04 11:31:01;;;;;;;;;;;28.70;76.70;;;;;;5110699;28;20033;-69
2022/06/04 11:33:48;;;;;;;;;;;27.90;78.50;;;;;;5110691;28;19908;-66
2022/06/04 11:36:24;;;;;;;;;;;27.10;81.30;;;;;;5109947;28;19914;-68
2022/06/04 11:38:53;;;;;;;;;;;26.40;86.00;;;;;;5110325;28;19968;-69
2022/06/04 11:41:30;;;;;;;;;;;26.20;86.40;;;;;;5110450;28;19908;-69
2022/06/04 11:44:02;;;;;;;;;;;27.00;83.40;;;;;;5110105;28;19903;-66
2022/06/04 11:46:41;;;;;;;;;;;25.90;83.60;;;;;;5108874;28;19915;-66
2022/06/04 11:49:24;;;;;;;;;;;27.00;84.60;;;;;;5109922;28;19954;-67
2022/06/04 11:51:55;;;;;;;;;;;27.90;79.70;;;;;;5110139;28;19904;-65
2022/06/04 11:54:29;;;;;;;;;;;28.10;78.00;;;;;;5110024;28;20435;-65
2022/06/04 11:57:14;;;;;;;;;;;27.70;77.90;;;;;;5109732;28;20299;-67
2022/06/04 11:59:42;;;;;;;;;;;27.50;78.40;;;;;;5110065;28;20065;-67
2022/06/04 12:02:08;;;;;;;;;;;27.50;79.80;;;;;;5109737;28;19908;-68
2022/06/04 12:04:33;;;;;;;;;;;26.50;80.60;;;;;;5109682;28;19908;-68
2022/06/04 12:07:05;;;;;;;;;;;26.40;79.70;;;;;;5109807;28;19907;-67
2022/06/04 12:09:34;;;;;;;;;;;27.00;79.10;;;;;;5109672;28;19904;-67
2022/06/04 12:12:12;;;;;;;;;;;26.30;79.90;;;;;;5109653;28;20338;-67
2022/06/04 12:14:37;;;;;;;;;;;26.80;78.90;;;;;;5109202;28;19907;-67
2022/06/04 12:17:24;;;;;;;;;;;27.90;79.90;;;;;;5109534;28;19904;-67
2022/06/04 12:25:38;;;;;;;;;;;25.80;80.40;;;;;;5109700;28;19949;-68
2022/06/04 12:28:19;;;;;;;;;;;26.50;81.60;;;;;;5109435;28;19908;-68
2022/06/04 12:30:48;;;;;;;;;;;27.30;80.70;;;;;;5107816;28;19954;-67
2022/06/04 12:33:20;;;;;;;;;;;29.00;77.90;;;;;;5108864;27;19904;-69
2022/06/04 12:35:55;;;;;;;;;;;28.40;72.80;;;;;;5109026;28;19933;-68
2022/06/04 12:38:21;;;;;;;;;;;27.20;73.60;;;;;;5108847;28;20431;-67
2022/06/04 12:40:48;;;;;;;;;;;26.10;81.30;;;;;;5109281;28;19908;-67
2022/06/04 12:43:13;;;;;;;;;;;25.50;80.60;;;;;;5109358;28;19908;-67
2022/06/04 12:45:41;;;;;;;;;;;25.90;80.80;;;;;;5109134;28;19908;-68
2022/06/04 12:48:25;;;;;;;;;;;26.70;79.40;;;;;;5108852;28;19907;-67
2022/06/04 12:50:58;;;;;;;;;;;26.00;81.40;;;;;;5108629;28;19978;-67
2022/06/04 12:53:24;;;;;;;;;;;26.10;81.60;;;;;;5109000;28;19904;-67
2022/06/04 12:55:52;;;;;;;;;;;25.10;84.30;;;;;;5109100;28;20314;-66
2022/06/04 12:58:30;;;;;;;;;;;24.40;85.70;;;;;;5108451;28;19915;-66
2022/06/04 13:00:55;;;;;;;;;;;23.10;87.50;;;;;;5107339;28;20470;-66
2022/06/04 13:03:28;;;;;;;;;;;22.50;92.00;;;;;;5109086;28;20372;-67
2022/06/04 13:05:54;;;;;;;;;;;22.30;93.20;;;;;;5108342;28;19933;-67
2022/06/04 13:08:19;;;;;;;;;;;22.50;94.10;;;;;;5108597;28;19904;-63
2022/06/04 13:11:05;;;;;;;;;;;23.30;92.30;;;;;;5108506;28;19986;-62
2022/06/04 13:13:44;;;;;;;;;;;24.00;91.30;;;;;;5108070;28;19903;-62
2022/06/04 13:16:16;;;;;;;;;;;24.90;90.30;;;;;;5108245;28;19908;-62
2022/06/04 13:18:42;;;;;;;;;;;24.00;89.40;;;;;;5108263;28;19916;-63
2022/06/04 13:21:15;;;;;;;;;;;24.70;90.50;;;;;;5107859;28;20400;-63
2022/06/04 13:23:45;;;;;;;;;;;24.50;88.20;;;;;;5107526;28;20321;-63
2022/06/04 13:26:27;;;;;;;;;;;24.20;90.50;;;;;;5107759;28;19989;-64
2022/06/04 13:28:53;;;;;;;;;;;23.20;91.30;;;;;;5107995;28;20436;-63
2022/06/04 13:31:23;;;;;;;;;;;22.50;92.80;;;;;;5107989;28;19939;-63
2022/06/04 13:33:50;;;;;;;;;;;22.10;94.80;;;;;;5108332;28;19903;-63
2022/06/04 13:36:18;;;;;;;;;;;21.90;96.40;;;;;;5108119;28;19907;-63
2022/06/04 13:38:44;;;;;;;;;;;21.70;95.60;;;;;;5106250;28;19926;-65
2022/06/04 13:41:18;;;;;;;;;;;21.40;96.30;;;;;;5105949;28;19904;-65
2022/06/04 13:43:47;;;;;;;;;;;21.20;96.70;;;;;;5106090;28;19997;-66
2022/06/04 13:46:23;;;;;;;;;;;21.50;97.00;;;;;;5105885;28;20287;-65
2022/06/04 13:48:53;;;;;;;;;;;21.90;97.20;;;;;;5106318;28;20036;-66
2022/06/04 13:51:20;;;;;;;;;;;22.20;95.80;;;;;;5105641;28;19908;-65
2022/06/04 13:53:53;;;;;;;;;;;22.70;95.50;;;;;;5106167;28;20169;-63
2022/06/04 13:56:20;;;;;;;;;;;22.60;94.30;;;;;;5106350;28;19922;-65
2022/06/04 13:58:45;;;;;;;;;;;22.40;95.20;;;;;;5102919;28;20442;-66
2022/06/04 14:01:15;;;;;;;;;;;22.00;95.40;;;;;;5105326;28;19908;-68
2022/06/04 14:03:45;;;;;;;;;;;22.50;95.20;;;;;;5107499;28;19919;-68
2022/06/04 14:06:11;;;;;;;;;;;23.10;94.50;;;;;;5107497;28;19991;-67
2022/06/04 14:08:47;;;;;;;;;;;23.40;94.10;;;;;;5107804;28;20393;-70
2022/06/04 14:11:22;;;;;;;;;;;23.70;93.20;;;;;;5112425;28;20010;-69
2022/06/04 14:14:02;;;;;;;;;;;23.70;91.50;;;;;;5111712;28;19903;-70
2022/06/04 14:16:30;;;;;;;;;;;23.50;92.50;;;;;;5111416;28;19915;-68
2022/06/04 14:19:16;;;;;;;;;;;23.30;93.00;;;;;;5111274;28;19915;-65
2022/06/04 14:21:43;;;;;;;;;;;23.30;93.50;;;;;;5079539;28;19903;-68
2022/06/04 14:24:08;;;;;;;;;;;23.10;93.30;;;;;;5106301;27;19904;-66
2022/06/04 14:26:34;;;;;;;;;;;23.00;93.90;;;;;;5111569;28;19919;-68
2022/06/04 14:29:02;;;;;;;;;;;23.00;94.70;;;;;;5111983;28;19911;-67
2022/06/04 14:31:51;;;;;;;;;;;22.90;93.60;;;;;;5111580;28;19986;-66
2022/06/04 14:34:18;;;;;;;;;;;23.00;95.10;;;;;;5110889;28;19930;-67
2022/06/04 14:36:51;;;;;;;;;;;23.10;94.80;;;;;;5110535;28;19904;-69
2022/06/04 14:39:18;;;;;;;;;;;23.00;93.50;;;;;;5110929;28;20006;-64
2022/06/04 14:41:47;;;;;;;;;;;23.10;93.50;;;;;;5111358;27;19917;-65
2022/06/04 14:44:12;;;;;;;;;;;22.90;93.30;;;;;;5111668;28;20566;-66
2022/06/04 14:46:57;;;;;;;;;;;22.60;93.80;;;;;;5109235;28;20317;-65